Time;durP1;ratioP1;P1;durP2;ratioP2;P2;SDS_P1;SDS_P2;PMS_P1;PMS_P2;Temp;Humidity;BMP_temperature;BMP_pressure;BME280_temperature;BME280_humidity;BME280_pressure;Samples;Min_cycle;Max_cycle;Signal;HPM_P1;HPM_P2
2023/03/21 00:00:54;;;;;;;13.10;4.67;;;;;;;41.83;34.65;101033.56;6179743;23;20425;-88
2023/03/21 00:03:20;;;;;;;11.93;4.87;;;;;;;41.97;34.60;101035.25;6180105;23;20381;-89
2023/03/21 00:05:50;;;;;;;11.43;4.70;;;;;;;41.87;34.92;101028.28;6154640;23;20494;-90
2023/03/21 00:08:17;;;;;;;16.30;6.43;;;;;;;41.96;34.95;101020.81;6154910;23;20412;-90
2023/03/21 00:10:43;;;;;;;13.50;5.03;;;;;;;41.95;34.35;101029.34;6154656;23;20444;-89
2023/03/21 00:13:11;;;;;;;16.07;5.03;;;;;;;41.94;34.26;101027.75;6179305;23;20433;-88
2023/03/21 00:15:48;;;;;;;10.40;5.10;;;;;;;42.14;34.17;101013.34;6154838;23;20385;-89
2023/03/21 00:18:16;;;;;;;18.83;5.57;;;;;;;42.09;34.47;101006.13;6156453;23;20846;-91
2023/03/21 00:20:45;;;;;;;18.17;5.87;;;;;;;42.19;34.48;101012.38;6154219;23;20464;-89
2023/03/21 00:23:11;;;;;;;10.87;5.47;;;;;;;42.16;34.29;101005.63;6154741;23;20385;-88
2023/03/21 00:25:37;;;;;;;15.10;6.57;;;;;;;42.20;34.72;101008.50;6154614;23;20385;-89
2023/03/21 00:28:03;;;;;;;11.67;5.03;;;;;;;42.28;34.19;101002.97;6179125;23;20713;-88
2023/03/21 00:30:29;;;;;;;13.10;6.37;;;;;;;42.17;34.96;101004.50;6154517;23;20408;-89
2023/03/21 00:32:55;;;;;;;12.77;6.00;;;;;;;42.12;34.42;101005.50;6179742;23;20445;-88
2023/03/21 00:35:21;;;;;;;15.47;6.20;;;;;;;42.09;34.86;100999.91;6179359;23;20381;-88
2023/03/21 00:37:47;;;;;;;8.20;4.17;;;;;;;41.89;34.48;100985.13;6154340;23;20413;-90
2023/03/21 00:40:15;;;;;;;12.03;4.83;;;;;;;41.82;34.96;100982.94;6154776;23;20386;-89
2023/03/21 00:42:45;;;;;;;14.50;4.20;;;;;;;41.78;34.59;100965.66;6177914;23;20396;-89
2023/03/21 00:45:11;;;;;;;10.40;5.23;;;;;;;41.93;34.75;100977.09;6153201;23;20396;-91
2023/03/21 00:47:37;;;;;;;13.90;5.70;;;;;;;41.73;34.93;100965.81;6154709;23;20385;-89
2023/03/21 00:50:04;;;;;;;19.87;5.40;;;;;;;41.88;34.82;100953.56;6179219;23;20496;-89
2023/03/21 00:52:30;;;;;;;19.43;4.93;;;;;;;41.82;34.95;100952.19;6153493;23;20861;-89
2023/03/21 00:54:56;;;;;;;13.33;5.20;;;;;;;41.93;34.74;100952.56;6154300;23;20413;-89
2023/03/21 00:57:22;;;;;;;13.57;5.83;;;;;;;41.68;35.59;100946.97;6179159;23;20393;-87
2023/03/21 00:59:48;;;;;;;15.27;4.87;;;;;;;41.64;35.21;100946.00;6154062;23;20459;-89
2023/03/21 01:02:21;;;;;;;11.43;4.70;;;;;;;41.51;35.17;100942.41;6154090;23;20447;-88
2023/03/21 01:04:49;;;;;;;9.90;4.50;;;;;;;41.61;34.91;100936.56;6154307;23;20488;-88
2023/03/21 01:07:15;;;;;;;11.90;4.40;;;;;;;41.60;35.34;100926.78;6154183;23;20794;-90
2023/03/21 01:09:41;;;;;;;11.60;4.60;;;;;;;41.37;34.75;100913.81;6154169;23;20484;-91
2023/03/21 01:12:07;;;;;;;16.43;4.80;;;;;;;41.36;34.78;100910.28;6154265;23;20725;-89
2023/03/21 01:14:33;;;;;;;9.67;5.20;;;;;;;41.63;34.71;100902.78;6179407;23;20413;-88
2023/03/21 01:16:59;;;;;;;13.97;5.43;;;;;;;41.34;34.87;100890.78;6154043;23;20390;-88
2023/03/21 01:19:27;;;;;;;9.73;4.47;;;;;;;41.48;35.28;100901.41;6153907;23;20397;-89
2023/03/21 01:21:53;;;;;;;11.40;4.67;;;;;;;41.46;34.88;100887.34;6155841;23;20423;-89
2023/03/21 01:24:19;;;;;;;9.33;4.30;;;;;;;41.56;35.02;100881.53;6153670;23;20420;-88
2023/03/21 01:26:45;;;;;;;12.53;5.10;;;;;;;41.53;35.33;100879.44;6153521;23;20389;-88
2023/03/21 01:29:11;;;;;;;11.90;5.73;;;;;;;41.51;35.54;100874.34;6154020;23;20388;-88
2023/03/21 01:31:37;;;;;;;19.60;6.27;;;;;;;41.46;35.78;100874.53;6154013;23;20386;-88
2023/03/21 01:34:03;;;;;;;11.60;4.83;;;;;;;41.69;34.72;100883.19;6153847;23;20462;-89
2023/03/21 01:36:30;;;;;;;13.60;5.07;;;;;;;41.48;35.23;100866.03;6153713;23;20385;-89
2023/03/21 01:38:58;;;;;;;10.33;5.37;;;;;;;41.63;35.23;100872.81;6155919;23;20428;-88
2023/03/21 01:41:30;;;;;;;13.20;4.30;;;;;;;41.82;35.16;100867.72;6153117;23;20492;-89
2023/03/21 01:43:57;;;;;;;11.40;4.17;;;;;;;41.53;35.17;100866.63;6154213;23;20385;-88
2023/03/21 01:46:43;;;;;;;12.87;4.40;;;;;;;41.53;35.16;100865.81;6153607;23;20396;-89
2023/03/21 01:49:24;;;;;;;12.90;4.30;;;;;;;41.41;35.65;100863.81;6154308;23;20381;-89
2023/03/21 01:52:00;;;;;;;10.83;5.30;;;;;;;41.54;35.10;100856.53;6153694;23;20901;-88
2023/03/21 01:54:31;;;;;;;10.10;5.20;;;;;;;41.43;35.38;100856.09;6153449;23;20388;-88
2023/03/21 01:57:01;;;;;;;13.63;5.17;;;;;;;41.64;35.34;100850.69;6153297;23;20381;-89
2023/03/21 01:59:33;;;;;;;10.63;4.23;;;;;;;41.68;35.21;100850.81;6153407;23;20387;-87
2023/03/21 02:02:06;;;;;;;9.93;4.67;;;;;;;41.63;35.38;100851.81;6155780;23;20931;-88
2023/03/21 02:04:37;;;;;;;14.20;6.40;;;;;;;41.43;35.80;100847.94;6178510;23;20381;-87
2023/03/21 02:07:16;;;;;;;14.93;4.40;;;;;;;41.48;36.06;100845.03;6153552;23;20800;-88
2023/03/21 02:09:47;;;;;;;9.57;4.13;;;;;;;41.59;36.20;100842.72;6153523;23;20464;-88
2023/03/21 02:12:15;;;;;;;11.90;5.27;;;;;;;41.45;35.81;100836.75;6153630;23;20416;-89
2023/03/21 02:14:42;;;;;;;18.73;5.20;;;;;;;41.22;36.22;100828.06;6155279;23;20403;-88
2023/03/21 02:17:20;;;;;;;12.90;3.90;;;;;;;41.34;36.19;100834.41;6153409;23;20429;-86
2023/03/21 02:20:13;;;;;;;11.33;4.40;;;;;;;41.33;36.13;100840.97;6178355;23;20940;-88
2023/03/21 02:23:30;;;;;;;16.23;6.30;;;;;;;41.27;36.43;100836.81;6178569;23;20411;-88
2023/03/21 02:26:25;;;;;;;11.63;5.00;;;;;;;41.27;36.88;100831.38;6105738;23;20804;-88
2023/03/21 02:29:10;;;;;;;18.13;4.40;;;;;;;41.21;36.44;100821.81;6178331;23;20412;-89
2023/03/21 02:31:59;;;;;;;15.40;4.90;;;;;;;41.43;35.99;100834.34;6153650;23;20386;-90
2023/03/21 02:34:28;;;;;;;18.07;5.33;;;;;;;41.30;36.17;100838.06;6153247;23;20550;-89
2023/03/21 02:37:04;;;;;;;17.50;4.90;;;;;;;41.22;35.89;100828.06;6178337;23;20397;-89
2023/03/21 02:39:45;;;;;;;12.30;6.00;;;;;;;41.13;35.76;100825.41;6153429;23;20385;-88
2023/03/21 02:42:27;;;;;;;16.30;6.30;;;;;;;41.21;35.99;100821.81;6153537;23;20432;-88
2023/03/21 02:45:07;;;;;;;26.27;6.20;;;;;;;41.30;36.53;100827.97;6178333;23;20908;-88
2023/03/21 02:47:37;;;;;;;13.10;7.97;;;;;;;41.42;36.00;100821.06;6178299;23;20432;-87
2023/03/21 02:50:16;;;;;;;13.27;6.03;;;;;;;41.34;35.26;100820.78;6178274;23;20734;-88
2023/03/21 02:52:47;;;;;;;9.60;4.80;;;;;;;41.37;35.17;100822.03;6153895;23;20912;-88
2023/03/21 02:55:23;;;;;;;15.80;4.60;;;;;;;41.38;35.09;100820.94;6155874;23;20385;-91
2023/03/21 02:57:50;;;;;;;23.17;6.80;;;;;;;41.56;35.35;100816.97;6154964;23;20389;-91
2023/03/21 03:00:20;;;;;;;13.20;5.67;;;;;;;41.56;35.43;100821.59;6155854;23;20571;-91
2023/03/21 03:02:49;;;;;;;10.33;4.23;;;;;;;41.41;35.97;100820.25;6155695;23;20910;-90
2023/03/21 03:05:22;;;;;;;11.50;4.27;;;;;;;41.36;35.95;100816.94;6155761;23;20396;-88
2023/03/21 03:08:00;;;;;;;12.93;4.60;;;;;;;41.49;36.30;100807.69;6151465;23;20870;-89
2023/03/21 03:10:35;;;;;;;11.87;5.00;;;;;;;41.41;35.97;100822.97;6180324;23;20464;-88
2023/03/21 03:13:05;;;;;;;12.27;5.37;;;;;;;41.35;35.95;100821.59;6179954;23;20408;-88
2023/03/21 03:15:58;;;;;;;16.83;4.70;;;;;;;41.31;35.51;100813.28;6180159;23;20456;-88
2023/03/21 03:18:45;;;;;;;13.30;6.77;;;;;;;41.24;36.14;100809.47;6180091;23;20467;-89
2023/03/21 03:21:19;;;;;;;13.50;4.70;;;;;;;41.52;35.73;100810.56;6157123;23;20508;-89
2023/03/21 03:24:13;;;;;;;12.73;4.73;;;;;;;41.48;36.02;100809.63;6155376;23;20389;-88
2023/03/21 03:26:46;;;;;;;17.00;5.33;;;;;;;41.26;36.13;100810.75;6155390;23;20373;-88
2023/03/21 03:29:16;;;;;;;11.87;5.77;;;;;;;41.53;35.23;100801.28;6155291;23;20778;-88
2023/03/21 03:31:47;;;;;;;20.70;5.67;;;;;;;41.55;35.65;100803.66;6155158;23;20468;-88
2023/03/21 03:34:21;;;;;;;12.90;5.90;;;;;;;41.45;35.01;100806.78;6154822;23;20503;-88
2023/03/21 03:36:55;;;;;;;12.40;5.23;;;;;;;41.42;35.26;100810.16;6179859;23;20384;-89
2023/03/21 03:39:26;;;;;;;10.37;6.20;;;;;;;41.40;35.91;100809.72;6156830;23;20428;-89
2023/03/21 03:42:04;;;;;;;14.53;4.87;;;;;;;41.24;36.03;100821.13;6155170;23;20428;-89
2023/03/21 03:44:31;;;;;;;12.50;4.60;;;;;;;41.41;35.79;100820.25;6155151;23;20841;-88
2023/03/21 03:47:05;;;;;;;13.03;5.17;;;;;;;41.45;35.48;100823.13;6154698;23;20408;-89
2023/03/21 03:49:47;;;;;;;12.63;5.50;;;;;;;41.55;35.66;100812.63;6155052;23;20392;-89
2023/03/21 03:52:19;;;;;;;19.33;5.30;;;;;;;41.55;35.83;100815.34;6154920;23;20405;-89
2023/03/21 03:54:48;;;;;;;17.03;5.67;;;;;;;41.48;35.92;100806.91;6179693;23;20464;-88
2023/03/21 03:57:15;;;;;;;19.27;5.47;;;;;;;41.34;35.51;100809.91;6154776;23;20444;-88
2023/03/21 03:59:44;;;;;;;11.67;5.13;;;;;;;41.29;35.30;100818.22;6179480;23;20887;-90
2023/03/21 04:02:11;;;;;;;16.83;5.10;;;;;;;41.54;34.99;100813.75;6155034;23;20889;-90
2023/03/21 04:04:37;;;;;;;18.53;6.00;;;;;;;41.68;35.11;100818.94;6154920;23;20382;-87
2023/03/21 04:07:05;;;;;;;12.13;4.10;;;;;;;41.42;34.64;100818.34;6154841;23;20390;-88
2023/03/21 04:09:32;;;;;;;9.53;4.37;;;;;;;41.27;35.25;100809.59;6154726;23;20392;-88
2023/03/21 04:11:58;;;;;;;13.23;5.27;;;;;;;41.37;35.44;100821.25;6154510;23;20877;-87
2023/03/21 04:14:24;;;;;;;10.87;5.23;;;;;;;41.38;34.54;100820.16;6154981;23;20407;-88
2023/03/21 04:16:51;;;;;;;15.53;4.40;;;;;;;41.53;34.10;100822.25;6154371;23;20389;-88
2023/03/21 04:19:17;;;;;;;11.40;5.33;;;;;;;41.42;34.95;100823.78;6154517;23;20844;-88
2023/03/21 04:21:45;;;;;;;14.50;5.27;;;;;;;41.37;35.14;100829.41;6154676;23;20440;-89
2023/03/21 04:24:12;;;;;;;19.80;5.23;;;;;;;41.52;34.99;100831.56;6156440;23;20381;-88
2023/03/21 04:26:39;;;;;;;17.10;5.77;;;;;;;41.52;34.77;100821.47;6154769;23;20878;-87
2023/03/21 04:29:05;;;;;;;14.30;4.47;;;;;;;41.61;34.45;100824.09;6154633;23;20400;-88
2023/03/21 04:31:33;;;;;;;17.83;5.20;;;;;;;41.51;35.05;100835.41;6178911;23;20389;-88
2023/03/21 04:34:01;;;;;;;16.17;6.60;;;;;;;41.47;34.55;100829.03;6154663;23;20440;-91
2023/03/21 04:36:37;;;;;;;9.50;4.80;;;;;;;41.51;34.47;100819.06;6179095;23;20835;-91
2023/03/21 04:39:11;;;;;;;14.87;5.87;;;;;;;41.59;34.18;100815.47;6154995;23;20849;-88
2023/03/21 04:41:41;;;;;;;9.67;5.30;;;;;;;41.49;34.78;100824.84;6154421;23;20425;-89
2023/03/21 04:44:08;;;;;;;27.70;5.90;;;;;;;41.50;35.05;100831.91;6154529;23;20436;-88
2023/03/21 04:46:36;;;;;;;10.97;6.27;;;;;;;41.60;35.04;100825.25;6154332;23;20389;-89
2023/03/21 04:49:02;;;;;;;18.93;6.83;;;;;;;41.70;35.05;100833.00;6154445;23;20385;-90
2023/03/21 04:51:29;;;;;;;13.80;5.20;;;;;;;41.81;34.76;100838.91;6154027;23;20857;-90
2023/03/21 04:53:58;;;;;;;12.83;5.57;;;;;;;41.83;34.90;100851.03;6154738;23;20381;-89
2023/03/21 04:56:30;;;;;;;12.60;4.97;;;;;;;41.84;34.50;100840.94;6154406;23;20381;-88
2023/03/21 04:59:04;;;;;;;16.87;5.50;;;;;;;41.79;34.64;100835.69;6179202;23;20380;-89
2023/03/21 05:01:30;;;;;;;16.30;6.13;;;;;;;41.65;35.00;100835.94;6154256;23;20421;-88
2023/03/21 05:03:58;;;;;;;15.60;5.50;;;;;;;41.63;34.60;100837.41;6179105;23;20377;-88
2023/03/21 05:06:25;;;;;;;11.77;4.43;;;;;;;41.78;33.74;100826.72;6154388;23;20377;-88
2023/03/21 05:08:51;;;;;;;20.67;5.50;;;;;;;41.89;33.36;100831.75;6154291;23;20466;-88
2023/03/21 05:11:17;;;;;;;20.00;5.70;;;;;;;41.76;33.88;100831.72;6154365;23;20923;-89
2023/03/21 05:13:43;;;;;;;11.60;5.83;;;;;;;41.81;33.63;100836.16;6151530;23;20409;-88
2023/03/21 05:16:09;;;;;;;14.43;6.13;;;;;;;41.81;33.68;100847.84;6152292;23;20396;-88
2023/03/21 05:18:37;;;;;;;16.60;5.50;;;;;;;41.82;34.43;100845.94;6153369;23;20385;-88
2023/03/21 05:21:06;;;;;;;17.20;6.17;;;;;;;41.89;34.29;100842.66;6153738;23;20421;-88
2023/03/21 05:23:37;;;;;;;13.57;4.77;;;;;;;41.69;34.15;100847.78;6154306;23;20377;-88
2023/03/21 05:26:06;;;;;;;11.90;4.60;;;;;;;41.70;34.63;100862.97;6154062;23;20439;-88
2023/03/21 05:28:35;;;;;;;13.00;4.70;;;;;;;41.82;34.40;100857.63;6152938;23;20393;-89
2023/03/21 05:31:03;;;;;;;10.93;4.87;;;;;;;41.92;34.13;100853.69;6154027;23;20449;-89
2023/03/21 05:33:29;;;;;;;22.30;5.60;;;;;;;41.75;34.02;100854.63;6152772;23;20449;-89
2023/03/21 05:35:55;;;;;;;14.67;7.37;;;;;;;41.67;34.05;100863.63;6153723;23;20777;-89
2023/03/21 05:38:21;;;;;;;12.83;5.00;;;;;;;41.69;33.65;100863.31;6154046;23;20389;-88
2023/03/21 05:40:48;;;;;;;13.23;4.70;;;;;;;41.76;33.89;100856.22;6155051;23;20436;-92
2023/03/21 05:43:17;;;;;;;11.97;5.40;;;;;;;41.77;34.48;100865.19;6154135;23;20393;-90
2023/03/21 05:45:47;;;;;;;17.40;5.93;;;;;;;41.75;34.13;100856.56;6153629;23;20389;-90
2023/03/21 05:48:15;;;;;;;11.00;5.20;;;;;;;41.74;34.82;100860.38;6150961;23;20476;-91
2023/03/21 05:50:43;;;;;;;17.20;6.17;;;;;;;41.69;34.84;100853.22;6155631;23;20463;-94
2023/03/21 05:53:11;;;;;;;11.83;4.80;;;;;;;41.68;34.69;100862.53;6178499;23;20389;-90
2023/03/21 05:55:41;;;;;;;9.03;4.70;;;;;;;41.51;34.70;100851.75;6178996;23;20390;-95
2023/03/21 05:58:29;;;;;;;15.53;5.03;;;;;;;41.74;34.23;100861.22;6138900;23;20428;-96
2023/03/21 06:00:56;;;;;;;15.83;6.03;;;;;;;41.88;33.76;100850.03;6163518;23;20437;-92
2023/03/21 06:03:25;;;;;;;16.67;6.67;;;;;;;41.83;34.37;100851.03;6138175;23;20737;-90
2023/03/21 06:05:55;;;;;;;11.97;6.23;;;;;;;41.61;34.07;100848.63;6163060;23;20393;-93
2023/03/21 06:08:37;;;;;;;10.77;5.70;;;;;;;41.83;32.79;100859.22;6162749;23;20381;-90
2023/03/21 06:11:27;;;;;;;12.20;5.83;;;;;;;41.73;33.28;100873.19;6167243;23;20385;-83
2023/03/21 06:17:03;;;;;;;14.63;6.30;;;;;;;41.80;34.11;100850.91;6216324;23;20435;-88
2023/03/21 06:19:32;;;;;;;18.90;5.70;;;;;;;41.82;33.90;100868.53;6215147;23;20469;-88
2023/03/21 06:22:01;;;;;;;23.03;4.93;;;;;;;41.66;34.23;100858.53;6218315;23;20459;-85
2023/03/21 06:24:28;;;;;;;17.70;4.67;;;;;;;41.72;34.18;100840.84;6224373;23;20880;-80
2023/03/21 06:38:23;;;;;;;19.97;5.67;;;;;;;41.92;34.24;100861.06;6205759;22;20442;-94
2023/03/21 06:40:49;;;;;;;22.13;5.23;;;;;;;41.64;34.58;100867.03;6244331;23;20429;-91
2023/03/21 06:43:15;;;;;;;14.30;5.97;;;;;;;41.90;34.46;100866.06;6224962;23;20386;-92
2023/03/21 06:45:50;;;;;;;11.70;6.37;;;;;;;41.95;34.39;100874.81;6240946;23;20476;-87
2023/03/21 06:48:56;;;;;;;17.43;6.70;;;;;;;41.78;34.57;100858.63;6221237;23;20474;-88
2023/03/21 06:51:32;;;;;;;18.30;6.43;;;;;;;41.92;34.36;100871.94;6157874;23;20469;-94
2023/03/21 06:57:14;;;;;;;19.70;5.97;;;;;;;41.84;34.77;100889.97;6162317;23;20377;-93
2023/03/21 06:59:43;;;;;;;13.10;5.13;;;;;;;42.02;34.44;100885.19;6163940;23;20411;-94
2023/03/21 07:02:11;;;;;;;11.00;5.70;;;;;;;41.81;35.01;100883.28;6134870;23;20429;-94
2023/03/21 07:04:37;;;;;;;19.60;6.17;;;;;;;42.02;34.33;100894.16;6133961;23;20412;-92
2023/03/21 07:07:09;;;;;;;16.70;5.60;;;;;;;41.92;33.97;100882.84;6138281;23;20381;-92
2023/03/21 07:09:35;;;;;;;13.10;5.63;;;;;;;41.93;35.08;100907.06;6139858;23;20420;-92
2023/03/21 07:12:09;;;;;;;18.50;5.67;;;;;;;41.79;34.58;100895.63;6141036;23;20491;-91
2023/03/21 07:14:38;;;;;;;12.40;5.60;;;;;;;41.96;34.46;100886.50;6111997;23;20518;-91
2023/03/21 07:17:10;;;;;;;15.23;5.50;;;;;;;41.76;34.87;100901.75;6126981;23;20414;-94
2023/03/21 07:19:36;;;;;;;17.13;6.20;;;;;;;41.97;35.19;100915.34;6099575;23;20390;-83
2023/03/21 07:22:01;;;;;;;13.40;6.20;;;;;;;41.99;35.18;100910.34;6122207;23;20441;-82
2023/03/21 07:24:27;;;;;;;21.53;7.47;;;;;;;41.91;34.63;100922.13;6098288;23;20394;-81
2023/03/21 07:26:54;;;;;;;18.23;5.93;;;;;;;42.13;33.89;100919.88;6098142;23;20473;-83
2023/03/21 07:29:22;;;;;;;18.77;7.40;;;;;;;41.20;35.01;100909.25;6098587;23;20394;-84
2023/03/21 07:31:48;;;;;;;12.97;4.50;;;;;;;41.67;34.51;100920.81;6097833;23;20740;-79
2023/03/21 07:34:15;;;;;;;11.40;4.60;;;;;;;41.70;34.88;100920.19;6097172;23;20393;-85
2023/03/21 07:36:42;;;;;;;12.93;5.63;;;;;;;41.54;34.64;100925.41;6097931;23;20393;-88
2023/03/21 07:39:08;;;;;;;10.97;4.50;;;;;;;41.84;34.09;100914.50;6123268;23;20445;-86
2023/03/21 07:41:34;;;;;;;19.30;5.17;;;;;;;41.81;34.06;100924.13;6099416;23;20982;-86
2023/03/21 07:44:01;;;;;;;16.37;4.77;;;;;;;41.83;33.79;100932.78;6100501;23;20416;-87
2023/03/21 07:46:27;;;;;;;13.20;6.03;;;;;;;41.83;34.36;100930.03;6099849;23;20792;-87
2023/03/21 07:48:53;;;;;;;17.03;8.07;;;;;;;42.07;34.12;100937.56;6181404;23;20840;-88
2023/03/21 07:51:19;;;;;;;29.47;14.10;;;;;;;42.14;34.56;100940.53;6189720;23;20872;-89
2023/03/21 07:53:47;;;;;;;19.10;7.10;;;;;;;42.24;34.64;100944.81;6189099;23;20383;-87
2023/03/21 07:56:13;;;;;;;17.73;6.30;;;;;;;42.37;35.02;100948.38;6189506;23;20474;-86
2023/03/21 07:58:44;;;;;;;13.10;6.23;;;;;;;42.30;34.73;100953.59;6190331;23;20387;-89
2023/03/21 08:01:10;;;;;;;14.00;5.30;;;;;;;42.26;34.68;100949.94;6189200;23;20946;-87
2023/03/21 08:03:36;;;;;;;15.73;5.20;;;;;;;42.35;34.51;100961.53;6215734;23;20371;-87
2023/03/21 08:06:02;;;;;;;15.37;6.77;;;;;;;42.50;34.88;100960.13;6189064;23;20383;-87
2023/03/21 08:08:28;;;;;;;17.50;6.10;;;;;;;42.22;34.93;100957.16;6190098;23;20442;-86
2023/03/21 08:10:54;;;;;;;12.70;5.50;;;;;;;42.47;34.56;100964.31;6189301;23;20413;-89
2023/03/21 08:13:20;;;;;;;15.13;5.23;;;;;;;42.57;34.45;100968.56;6189046;23;20399;-91
2023/03/21 08:15:48;;;;;;;25.90;6.40;;;;;;;42.07;34.70;100972.97;6189405;23;20873;-87
2023/03/21 08:18:14;;;;;;;9.87;5.00;;;;;;;42.34;34.21;100979.84;6189327;23;20741;-87
2023/03/21 08:20:40;;;;;;;17.97;6.13;;;;;;;42.59;33.81;100979.94;6216231;23;20441;-87
2023/03/21 08:23:06;;;;;;;16.10;6.43;;;;;;;42.68;33.81;100991.59;6189242;23;20828;-86
2023/03/21 08:25:32;;;;;;;14.97;5.47;;;;;;;42.54;34.16;100996.50;6188740;23;20884;-86
2023/03/21 08:27:58;;;;;;;20.80;6.37;;;;;;;42.65;34.09;100984.06;6189200;23;20445;-86
2023/03/21 08:30:27;;;;;;;15.87;5.53;;;;;;;42.64;33.49;101007.81;6188473;23;20387;-86
2023/03/21 08:32:57;;;;;;;13.23;4.93;;;;;;;42.50;33.29;101020.94;6188325;23;20478;-86
2023/03/21 08:35:24;;;;;;;18.20;5.00;;;;;;;42.49;34.02;101010.38;6187642;23;20391;-88
2023/03/21 08:37:50;;;;;;;13.93;6.00;;;;;;;42.57;33.77;101013.03;6187867;23;20410;-86
2023/03/21 08:40:17;;;;;;;21.53;6.90;;;;;;;42.66;33.79;101012.94;6187560;23;20454;-86
2023/03/21 08:42:45;;;;;;;19.40;7.00;;;;;;;42.73;33.83;101009.69;6187654;23;20513;-89
2023/03/21 08:45:13;;;;;;;13.20;5.80;;;;;;;42.59;34.58;101018.13;6187875;23;20407;-87
2023/03/21 08:47:39;;;;;;;12.10;5.27;;;;;;;42.65;33.87;101016.81;6186993;23;20394;-86
2023/03/21 08:50:06;;;;;;;13.10;4.87;;;;;;;42.61;33.51;101024.06;6187662;23;20422;-89
2023/03/21 08:52:33;;;;;;;14.90;5.10;;;;;;;42.55;33.59;101028.91;6187813;23;20733;-88
2023/03/21 08:55:01;;;;;;;17.43;5.60;;;;;;;42.69;33.48;101020.47;6187069;23;20391;-86
2023/03/21 08:57:27;;;;;;;12.97;4.70;;;;;;;42.77;33.53;101014.13;6187739;23;20419;-86
2023/03/21 08:59:54;;;;;;;18.50;6.37;;;;;;;42.88;33.46;101015.28;6187414;23;20387;-87
2023/03/21 09:02:19;;;;;;;11.20;5.60;;;;;;;42.91;33.74;101027.47;6187860;23;20431;-86
2023/03/21 09:04:46;;;;;;;23.20;5.13;;;;;;;42.85;33.49;101024.16;6187472;23;20456;-86
2023/03/21 09:07:13;;;;;;;13.53;5.90;;;;;;;42.82;33.16;101029.47;6188604;23;21374;-83
2023/03/21 09:09:40;;;;;;;14.83;5.77;;;;;;;42.89;33.16;101035.97;6187905;23;20875;-82
2023/03/21 09:12:29;;;;;;;;;;;;;;;;;;;;;
2023/03/21 09:14:56;;;;;;;13.10;4.70;;;;;;;42.90;32.56;101034.03;6214286;23;20469;-87
2023/03/21 09:17:22;;;;;;;19.50;5.27;;;;;;;42.92;33.31;101029.84;6186853;23;20920;-84
2023/03/21 09:19:49;;;;;;;16.17;5.00;;;;;;;42.93;33.46;101031.44;6187441;23;20411;-87
2023/03/21 09:39:36;;;;;;;14.50;4.87;;;;;;;42.96;32.74;101029.97;6225551;23;20918;-90
2023/03/21 09:42:29;;;;;;;14.30;5.23;;;;;;;43.09;32.69;101028.09;6214286;23;20430;-86
2023/03/21 09:45:30;;;;;;;15.33;4.90;;;;;;;43.03;33.10;101027.53;6195509;23;20454;-79
2023/03/21 09:48:36;;;;;;;25.40;5.30;;;;;;;42.92;33.26;101027.13;6227392;23;20817;-86
2023/03/21 09:51:30;;;;;;;9.40;4.00;;;;;;;42.89;33.13;101027.00;6225933;23;20382;-79
2023/03/21 09:54:27;;;;;;;10.60;5.37;;;;;;;43.04;33.59;101037.31;6178907;23;20398;-91
2023/03/21 09:56:57;;;;;;;14.27;4.47;;;;;;;42.89;33.21;101032.44;6189282;23;20871;-94
2023/03/21 10:02:48;;;;;;;10.10;4.03;;;;;;;43.16;33.49;101048.25;6217392;23;20487;-92
2023/03/21 10:05:19;;;;;;;15.30;5.50;;;;;;;43.07;33.16;101047.53;6188522;23;20419;-93
2023/03/21 10:07:56;;;;;;;12.37;4.87;;;;;;;43.06;32.70;101039.69;6192682;23;20746;-88
2023/03/21 10:10:27;;;;;;;16.10;5.10;;;;;;;43.13;32.74;101029.81;6188926;23;20421;-89
2023/03/21 10:12:55;;;;;;;12.00;4.77;;;;;;;43.21;32.41;101046.41;6188503;23;20910;-90
2023/03/21 10:15:24;;;;;;;12.33;4.53;;;;;;;43.18;32.44;101045.97;6188270;23;20398;-92
2023/03/21 10:18:05;;;;;;;11.63;5.70;;;;;;;43.26;32.61;101055.19;6188639;23;20411;-86
2023/03/21 10:21:19;;;;;;;13.37;5.03;;;;;;;43.21;33.17;101046.41;6190332;23;20395;-79
2023/03/21 10:24:32;;;;;;;15.23;5.83;;;;;;;43.12;33.56;101049.25;6195241;23;20406;-95
2023/03/21 10:31:54;;;;;;;19.53;6.00;;;;;;;42.97;33.83;101028.84;6078745;23;20356;-87
2023/03/21 10:34:34;;;;;;;20.40;5.70;;;;;;;43.15;33.05;101024.00;6188047;23;20410;-86
2023/03/21 10:37:03;;;;;;;14.00;5.80;;;;;;;43.15;32.84;101034.91;6188160;23;20391;-86
2023/03/21 10:39:39;;;;;;;11.03;5.07;;;;;;;42.95;32.90;101028.38;6216215;23;20363;-84
2023/03/21 10:42:20;;;;;;;13.90;4.10;;;;;;;43.08;33.22;101037.41;6217025;23;20443;-81
2023/03/21 10:45:05;;;;;;;13.50;4.97;;;;;;;43.28;33.12;101036.56;6225595;23;20434;-79
2023/03/21 10:47:37;;;;;;;24.57;5.70;;;;;;;43.04;33.47;101020.94;6217751;23;20426;-88
2023/03/21 10:50:09;;;;;;;12.50;5.00;;;;;;;43.15;33.01;101024.78;6192805;23;20384;-88
2023/03/21 10:52:45;;;;;;;18.40;8.10;;;;;;;43.22;33.15;101034.34;6173039;23;20387;-86
2023/03/21 10:55:43;;;;;;;24.63;5.60;;;;;;;43.12;32.64;101021.97;6191694;23;20386;-91
2023/03/21 10:58:23;;;;;;;11.87;5.40;;;;;;;43.20;32.90;101015.59;6168575;23;20406;-89
2023/03/21 11:01:30;;;;;;;14.83;5.40;;;;;;;43.17;32.97;100997.97;6168587;23;20391;-90
2023/03/21 11:04:15;;;;;;;23.13;7.20;;;;;;;43.18;33.39;100996.84;6220763;23;20863;-92
2023/03/21 11:06:45;;;;;;;12.03;5.10;;;;;;;43.19;33.11;100998.41;6188616;23;20444;-94
2023/03/21 11:09:49;;;;;;;16.53;9.00;;;;;;;43.28;33.08;101001.06;6186576;23;20387;-94
2023/03/21 11:12:49;;;;;;;13.30;5.10;;;;;;;43.18;33.82;101004.22;6201117;23;20383;-83
2023/03/21 11:15:40;;;;;;;21.23;6.43;;;;;;;43.16;33.90;101004.56;6201960;23;20375;-81
2023/03/21 11:18:27;;;;;;;16.83;6.00;;;;;;;43.24;33.63;100989.22;6228354;23;20410;-88
2023/03/21 11:20:57;;;;;;;12.50;5.10;;;;;;;43.01;34.19;100983.38;6194580;23;20379;-88
2023/03/21 11:23:31;;;;;;;16.47;7.27;;;;;;;43.33;33.10;100980.91;6140230;23;20395;-89
2023/03/21 11:26:07;;;;;;;9.67;4.33;;;;;;;43.19;32.63;100983.97;6192825;23;20384;-94
2023/03/21 11:28:37;;;;;;;13.37;5.97;;;;;;;43.23;32.60;100992.28;6193903;23;20410;-89
2023/03/21 11:31:08;;;;;;;15.20;5.13;;;;;;;43.10;33.19;100973.19;6197608;23;20471;-85
2023/03/21 11:33:44;;;;;;;14.33;7.33;;;;;;;43.09;33.30;100973.50;6175173;23;20387;-82
2023/03/21 11:36:45;;;;;;;10.80;5.03;;;;;;;43.10;33.61;100966.91;6199992;23;20425;-82
2023/03/21 11:39:39;;;;;;;18.17;5.03;;;;;;;43.09;33.41;100979.75;6190211;23;20386;-89
2023/03/21 11:42:34;;;;;;;12.27;4.63;;;;;;;43.15;32.77;100972.13;6189450;23;20461;-91
2023/03/21 11:45:15;;;;;;;17.40;5.87;;;;;;;43.21;33.05;100959.06;6184203;23;20439;-83
2023/03/21 11:47:42;;;;;;;17.80;6.10;;;;;;;43.07;33.43;100954.72;6185808;23;20407;-84
2023/03/21 11:50:33;;;;;;;20.10;7.03;;;;;;;43.13;33.77;100966.22;6184805;23;20399;-85
2023/03/21 11:53:14;;;;;;;17.93;6.50;;;;;;;43.22;33.39;100964.19;6182228;23;20385;-84
2023/03/21 11:56:04;;;;;;;11.27;5.53;;;;;;;43.11;33.47;100971.25;6183349;23;20414;-85
2023/03/21 11:59:00;;;;;;;20.77;9.10;;;;;;;43.16;33.46;100971.03;6183936;23;20377;-85
2023/03/21 12:01:45;;;;;;;17.63;5.60;;;;;;;43.04;33.41;100965.56;6183670;23;20424;-83
2023/03/21 12:04:27;;;;;;;13.03;5.80;;;;;;;43.29;33.18;100956.22;6181063;23;20864;-85
2023/03/21 12:07:05;;;;;;;13.00;5.30;;;;;;;43.30;33.02;100951.56;6180659;23;20419;-84
2023/03/21 12:09:38;;;;;;;18.70;5.63;;;;;;;43.30;33.31;100948.84;6182475;23;20388;-84
2023/03/21 12:12:13;;;;;;;19.10;5.83;;;;;;;43.33;33.28;100948.13;6181336;23;20893;-84
2023/03/21 12:15:23;;;;;;;13.97;6.43;;;;;;;43.34;33.46;100936.06;6183710;23;20411;-83
2023/03/21 12:18:24;;;;;;;19.10;5.40;;;;;;;43.01;34.00;100926.06;6112202;23;20419;-82
2023/03/21 12:21:00;;;;;;;13.03;4.93;;;;;;;43.31;33.39;100917.66;6104158;23;20414;-84
2023/03/21 12:23:44;;;;;;;20.70;4.87;;;;;;;43.22;33.64;100923.25;6182270;23;20417;-84
2023/03/21 12:26:27;;;;;;;13.93;5.57;;;;;;;43.08;33.52;100923.56;6184232;23;20844;-83
2023/03/21 12:29:28;;;;;;;13.87;5.30;;;;;;;43.37;33.01;100910.81;6183731;23;20423;-82